createdAt,value
2022-10-12T00:03:25.980Z,5.70
2022-10-12T00:07:27.534Z,5.60
2022-10-12T00:11:29.361Z,5.60
2022-10-12T00:15:30.896Z,5.70
2022-10-12T00:24:21.044Z,5.70
2022-10-12T00:28:22.665Z,5.60
2022-10-12T00:32:24.344Z,5.50
2022-10-12T00:36:27.972Z,5.50
2022-10-12T00:40:29.581Z,5.40
2022-10-12T00:44:40.373Z,5.40
2022-10-12T00:48:42.228Z,5.40
2022-10-12T00:52:52.858Z,5.30
2022-10-12T00:56:55.508Z,5.50
2022-10-12T01:01:00.293Z,5.50
2022-10-12T01:05:02.917Z,5.50
2022-10-12T01:09:04.539Z,5.50
2022-10-12T01:13:06.732Z,5.50
2022-10-12T01:17:14.297Z,5.40
2022-10-12T01:21:18.938Z,5.50
2022-10-12T01:25:23.536Z,5.40
2022-10-12T01:29:34.517Z,5.40
2022-10-12T01:33:39.243Z,5.50
2022-10-12T01:37:56.735Z,5.40
2022-10-12T01:42:00.448Z,5.40
2022-10-12T01:46:24.770Z,5.40
2022-10-12T01:50:30.750Z,5.40
2022-10-12T01:54:51.218Z,5.20
2022-10-12T01:59:10.071Z,5.10
2022-10-12T02:03:16.155Z,5.20
2022-10-12T02:07:44.057Z,5.00
2022-10-12T02:11:47.878Z,5.10
2022-10-12T02:15:50.994Z,4.90
2022-10-12T02:19:57.234Z,4.90
2022-10-12T02:24:00.630Z,5.00
2022-10-12T02:28:09.170Z,4.90
2022-10-12T02:32:17.831Z,4.90
2022-10-12T02:36:27.520Z,4.90
2022-10-12T02:40:35.146Z,4.90
2022-10-12T02:44:39.002Z,4.90
2022-10-12T02:48:41.820Z,4.90
2022-10-12T02:52:43.758Z,4.70
2022-10-12T02:56:46.062Z,4.70
2022-10-12T03:00:47.852Z,4.70
2022-10-12T03:04:49.690Z,4.60
2022-10-12T03:08:51.286Z,4.70
2022-10-12T03:12:56.289Z,4.70
2022-10-12T03:16:57.882Z,4.70
2022-10-12T03:20:59.699Z,4.70
2022-10-12T03:25:01.368Z,4.30
2022-10-12T03:29:03.469Z,4.30
2022-10-12T03:33:05.044Z,4.40
2022-10-12T03:37:06.798Z,4.40
2022-10-12T03:41:08.504Z,4.30
2022-10-12T03:45:10.207Z,4.30
2022-10-12T03:49:12.087Z,4.20
2022-10-12T03:53:15.927Z,4.30
2022-10-12T03:57:17.747Z,4.20
2022-10-12T04:01:19.447Z,4.40
2022-10-12T04:05:21.018Z,4.40
2022-10-12T04:09:22.700Z,4.40
2022-10-12T04:13:24.315Z,4.50
2022-10-12T04:17:25.947Z,4.50
2022-10-12T04:21:32.689Z,4.50
2022-10-12T04:25:34.324Z,4.50
2022-10-12T04:29:37.216Z,4.50
2022-10-12T04:33:38.833Z,4.50
2022-10-12T04:37:40.798Z,4.50
2022-10-12T04:41:42.535Z,4.40
2022-10-12T04:45:44.240Z,4.40
2022-10-12T04:49:45.957Z,4.50
2022-10-12T04:53:47.578Z,4.50
2022-10-12T04:57:50.066Z,4.50
2022-10-12T05:01:51.730Z,4.50
2022-10-12T05:05:53.310Z,4.50
2022-10-12T05:09:54.845Z,4.50
2022-10-12T05:13:56.491Z,4.60
2022-10-12T05:17:58.116Z,4.60
2022-10-12T05:21:59.734Z,4.70
2022-10-12T05:26:01.376Z,4.60
2022-10-12T05:30:04.180Z,4.60
2022-10-12T05:34:05.757Z,4.60
2022-10-12T05:38:07.421Z,4.60
2022-10-12T05:42:09.081Z,4.60
2022-10-12T05:46:14.260Z,4.60
2022-10-12T05:50:16.217Z,4.70
2022-10-12T05:54:17.914Z,4.60
2022-10-12T05:58:19.512Z,4.70
2022-10-12T06:02:21.153Z,4.70
2022-10-12T06:06:23.888Z,4.70
2022-10-12T06:10:29.847Z,4.70
2022-10-12T06:14:31.769Z,4.80
2022-10-12T06:18:33.417Z,4.70
2022-10-12T06:22:36.729Z,4.70
2022-10-12T06:26:38.771Z,4.70
2022-10-12T06:30:40.422Z,4.90
2022-10-12T06:34:42.455Z,5.00
2022-10-12T06:38:43.997Z,5.20
2022-10-12T06:42:45.642Z,5.40
2022-10-12T06:46:50.423Z,5.60
2022-10-12T06:50:52.050Z,5.70
2022-10-12T06:54:56.022Z,5.90
2022-10-12T06:58:57.852Z,6.00
2022-10-12T07:02:59.427Z,6.20
2022-10-12T07:07:01.006Z,6.30
2022-10-12T07:11:06.833Z,6.50
2022-10-12T07:15:08.838Z,6.60
2022-10-12T07:19:10.487Z,6.70
2022-10-12T07:23:12.519Z,6.90
2022-10-12T07:27:14.296Z,7.10
2022-10-12T07:31:15.940Z,7.30
2022-10-12T07:35:17.565Z,7.40
2022-10-12T07:39:19.953Z,7.50
2022-10-12T07:43:22.553Z,7.60
2022-10-12T07:47:24.437Z,7.70
2022-10-12T07:51:26.135Z,7.60
2022-10-12T07:55:27.769Z,7.60
2022-10-12T07:59:29.445Z,7.70
2022-10-12T08:03:31.212Z,8.00
2022-10-12T08:07:34.109Z,8.60
2022-10-12T08:11:42.275Z,9.00
2022-10-12T08:15:51.940Z,9.40
2022-10-12T08:19:53.627Z,9.50
2022-10-12T08:23:55.523Z,9.70
2022-10-12T08:27:58.089Z,9.90
2022-10-12T08:32:01.842Z,10.00
2022-10-12T08:36:04.742Z,10.10
2022-10-12T08:40:07.223Z,10.30
2022-10-12T08:44:11.844Z,10.40
2022-10-12T08:48:17.034Z,10.60
2022-10-12T08:52:28.670Z,10.70
2022-10-12T08:56:45.009Z,10.80
2022-10-12T09:01:12.863Z,10.80
2022-10-12T09:10:18.932Z,11.00
2022-10-12T09:14:48.456Z,11.30
2022-10-12T09:18:52.415Z,11.50
2022-10-12T09:22:56.678Z,11.60
2022-10-12T09:27:08.040Z,12.00
2022-10-12T09:31:09.657Z,12.20
2022-10-12T09:44:40.220Z,12.70
2022-10-12T09:48:58.521Z,12.90
2022-10-12T09:53:01.193Z,12.90
2022-10-12T09:57:03.103Z,12.90
2022-10-12T10:01:18.941Z,12.80
2022-10-12T10:10:53.703Z,12.90
2022-10-12T10:15:01.536Z,12.90
2022-10-12T10:19:07.394Z,13.10
2022-10-12T10:23:56.402Z,13.30
2022-10-12T10:28:16.669Z,13.40
2022-10-12T10:32:51.650Z,13.70
2022-10-12T10:37:06.629Z,13.70
2022-10-12T10:41:08.693Z,13.80
2022-10-12T10:45:20.896Z,13.90
2022-10-12T10:49:41.596Z,14.00
2022-10-12T10:53:50.241Z,14.00
2022-10-12T10:58:06.107Z,14.20
2022-10-12T11:02:23.565Z,14.00
2022-10-12T11:06:44.403Z,14.10
2022-10-12T11:11:12.818Z,14.20
2022-10-12T11:15:59.342Z,14.20
2022-10-12T11:20:47.539Z,14.40
2022-10-12T11:25:02.427Z,14.10
2022-10-12T11:29:04.824Z,14.00
2022-10-12T11:33:11.559Z,14.20
2022-10-12T11:37:20.309Z,14.50
2022-10-12T11:41:37.226Z,15.00
2022-10-12T11:45:41.802Z,14.90
2022-10-12T11:49:44.684Z,15.00
2022-10-12T11:53:57.787Z,15.30
2022-10-12T11:58:01.747Z,15.10
2022-10-12T12:02:14.096Z,15.40
2022-10-12T12:06:31.139Z,15.40
2022-10-12T12:10:35.543Z,15.30
2022-10-12T12:14:47.144Z,15.30
2022-10-12T12:19:08.367Z,15.50
2022-10-12T12:23:19.409Z,15.50
2022-10-12T12:27:22.509Z,15.70
2022-10-12T12:31:27.640Z,15.90
2022-10-12T12:35:33.540Z,16.00
2022-10-12T12:39:36.003Z,16.30
2022-10-12T12:43:49.918Z,16.40
2022-10-12T12:47:52.341Z,16.70
2022-10-12T12:51:55.286Z,16.40
2022-10-12T12:56:08.180Z,16.30
2022-10-12T13:00:16.150Z,16.10
2022-10-12T13:04:49.176Z,16.40
2022-10-12T13:08:59.212Z,16.50
2022-10-12T13:13:14.734Z,16.20
2022-10-12T13:17:32.280Z,16.50
2022-10-12T13:21:48.337Z,16.70
2022-10-12T13:26:04.079Z,16.60
2022-10-12T13:30:14.083Z,16.40
2022-10-12T13:34:24.631Z,16.70
2022-10-12T13:38:27.558Z,16.80
2022-10-12T13:42:31.508Z,16.60
2022-10-12T13:46:48.057Z,16.50
2022-10-12T13:50:55.002Z,16.60
2022-10-12T13:54:57.900Z,16.60
2022-10-12T13:59:04.131Z,16.60
2022-10-12T14:03:08.998Z,16.70
2022-10-12T14:07:25.658Z,16.70
2022-10-12T14:11:27.833Z,16.70
2022-10-12T14:15:39.013Z,16.40
2022-10-12T14:19:45.029Z,16.60
2022-10-12T14:23:48.443Z,16.60
2022-10-12T14:27:58.524Z,16.50
2022-10-12T14:32:01.855Z,16.70
2022-10-12T14:36:15.658Z,16.70
2022-10-12T14:40:23.287Z,16.60
2022-10-12T14:44:26.898Z,16.70
2022-10-12T14:48:28.811Z,16.80
2022-10-12T14:52:37.367Z,16.80
2022-10-12T14:56:39.080Z,16.70
2022-10-12T15:00:50.743Z,16.70
2022-10-12T15:04:52.998Z,16.50
2022-10-12T15:08:57.397Z,16.40
2022-10-12T15:13:00.085Z,16.40
2022-10-12T15:17:06.753Z,16.40
2022-10-12T15:21:09.651Z,16.50
2022-10-12T15:25:17.949Z,16.40
2022-10-12T15:29:19.726Z,16.30
2022-10-12T15:33:23.374Z,16.40
2022-10-12T15:37:31.400Z,16.40
2022-10-12T15:41:37.959Z,16.40
2022-10-12T15:45:41.656Z,16.20
2022-10-12T15:49:44.490Z,16.00
2022-10-12T15:53:49.483Z,15.90
2022-10-12T15:57:53.259Z,15.90
2022-10-12T16:01:56.933Z,15.80
2022-10-12T16:05:59.150Z,15.80
2022-10-12T16:10:03.305Z,15.70
2022-10-12T16:14:06.116Z,15.50
2022-10-12T16:18:08.427Z,15.50
2022-10-12T16:22:12.953Z,15.40
2022-10-12T16:26:18.632Z,15.30
2022-10-12T16:30:21.931Z,15.20
2022-10-12T16:34:23.658Z,15.10
2022-10-12T16:38:25.456Z,15.00
2022-10-12T16:42:27.455Z,14.90
2022-10-12T16:46:30.559Z,14.90
2022-10-12T16:50:32.284Z,14.90
2022-10-12T16:54:34.045Z,14.80
2022-10-12T16:58:35.684Z,14.70
2022-10-12T17:02:37.488Z,14.70
2022-10-12T17:06:39.293Z,14.50
2022-10-12T17:10:42.524Z,14.40
2022-10-12T17:14:44.308Z,14.30
2022-10-12T17:18:46.191Z,14.20
2022-10-12T17:22:47.859Z,14.00
2022-10-12T17:26:49.479Z,13.90
2022-10-12T17:30:51.114Z,13.80
2022-10-12T17:34:52.790Z,13.80
2022-10-12T17:38:57.954Z,13.80
2022-10-12T17:43:00.772Z,13.80
2022-10-12T17:47:02.959Z,13.80
2022-10-12T17:51:10.950Z,13.70
2022-10-12T17:55:29.507Z,13.70
2022-10-12T17:59:34.751Z,13.60
2022-10-12T18:03:36.520Z,13.60
2022-10-12T18:07:41.985Z,13.60
2022-10-12T18:11:44.537Z,13.50
2022-10-12T18:15:47.481Z,13.40
2022-10-12T18:19:50.918Z,13.30
2022-10-12T18:23:53.032Z,13.30
2022-10-12T18:27:54.658Z,13.10
2022-10-12T18:31:56.389Z,13.00
2022-10-12T18:36:04.884Z,12.90
2022-10-12T18:40:06.767Z,12.80
2022-10-12T18:44:09.685Z,12.80
2022-10-12T18:48:11.723Z,12.80
2022-10-12T18:52:13.535Z,12.70
2022-10-12T18:56:15.463Z,12.60
2022-10-12T19:00:17.237Z,12.60
2022-10-12T19:04:19.014Z,12.50
2022-10-12T19:08:21.083Z,12.40
2022-10-12T19:12:23.367Z,12.40
2022-10-12T19:16:25.060Z,12.40
2022-10-12T19:20:26.727Z,12.30
2022-10-12T19:24:28.393Z,12.40
2022-10-12T19:28:30.353Z,12.30
2022-10-12T19:32:32.938Z,12.30
2022-10-12T19:36:35.170Z,12.20
2022-10-12T19:40:37.993Z,12.20
2022-10-12T19:44:39.762Z,12.20
2022-10-12T19:48:45.035Z,12.20
2022-10-12T19:52:46.728Z,12.00
2022-10-12T19:56:49.459Z,11.80
2022-10-12T20:00:51.611Z,11.70
2022-10-12T20:04:54.369Z,11.70
2022-10-12T20:08:57.134Z,11.60
2022-10-12T20:12:58.803Z,11.60
2022-10-12T20:17:00.496Z,11.60
2022-10-12T20:21:04.867Z,11.60
2022-10-12T20:25:09.578Z,11.60
2022-10-12T20:29:11.763Z,11.50
2022-10-12T20:33:13.651Z,11.40
2022-10-12T20:37:18.061Z,11.40
2022-10-12T20:41:21.668Z,11.30
2022-10-12T20:45:23.323Z,11.20
2022-10-12T20:49:25.010Z,11.20
2022-10-12T20:53:26.821Z,11.20
2022-10-12T20:57:28.519Z,11.20
2022-10-12T21:01:30.388Z,11.10
2022-10-12T21:05:34.728Z,11.20
2022-10-12T21:09:36.319Z,11.20
2022-10-12T21:13:41.829Z,11.20
2022-10-12T21:17:43.720Z,11.30
2022-10-12T21:21:46.585Z,11.30
2022-10-12T21:25:48.270Z,11.30
2022-10-12T21:29:51.721Z,11.30
2022-10-12T21:33:53.449Z,11.30
2022-10-12T21:37:55.038Z,11.30
2022-10-12T21:41:56.779Z,11.20
2022-10-12T21:46:06.314Z,11.00
2022-10-12T21:50:09.548Z,10.90
2022-10-12T21:54:11.190Z,10.80
2022-10-12T21:58:12.767Z,10.70
2022-10-12T22:02:14.621Z,10.80
2022-10-12T22:06:17.409Z,10.80
2022-10-12T22:10:19.023Z,10.80
2022-10-12T22:14:20.791Z,10.80
2022-10-12T22:18:22.374Z,10.80
2022-10-12T22:22:23.985Z,10.70
2022-10-12T22:26:26.179Z,10.70
2022-10-12T22:30:27.782Z,10.80
2022-10-12T22:34:29.465Z,10.60
2022-10-12T22:38:31.275Z,10.40
2022-10-12T22:42:32.835Z,10.60
2022-10-12T22:46:34.963Z,10.60
2022-10-12T22:50:36.564Z,10.60
2022-10-12T22:54:38.140Z,10.60
2022-10-12T22:58:39.783Z,10.60
2022-10-12T23:02:41.438Z,10.50
2022-10-12T23:06:43.084Z,10.40
2022-10-12T23:10:44.679Z,10.20
2022-10-12T23:14:46.343Z,10.30
2022-10-12T23:18:48.326Z,10.30
2022-10-12T23:22:49.928Z,10.50
2022-10-12T23:26:51.658Z,10.50
2022-10-12T23:30:53.280Z,10.60
2022-10-12T23:34:54.873Z,10.60
2022-10-12T23:38:58.926Z,10.60
2022-10-12T23:43:00.751Z,10.60
2022-10-12T23:47:02.348Z,10.60
2022-10-12T23:51:08.358Z,10.60
2022-10-12T23:55:09.955Z,10.50
2022-10-12T23:59:11.546Z,10.40
